sensor_id;sensor_type;location;lat;lon;timestamp;temperature;humidity
41481;DHT22;27217;51.220;5.308;2022-12-10T00:01:28;0.70;99.90
41481;DHT22;27217;51.220;5.308;2022-12-10T00:03:55;0.60;99.90
41481;DHT22;27217;51.220;5.308;2022-12-10T00:06:24;0.80;99.90
41481;DHT22;27217;51.220;5.308;2022-12-10T00:08:50;0.50;99.90
41481;DHT22;27217;51.220;5.308;2022-12-10T00:11:18;0.60;99.90
41481;DHT22;27217;51.220;5.308;2022-12-10T00:13:47;0.70;99.90
41481;DHT22;27217;51.220;5.308;2022-12-10T00:16:14;1.10;99.90
41481;DHT22;27217;51.220;5.308;2022-12-10T00:18:41;0.70;99.90
41481;DHT22;27217;51.220;5.308;2022-12-10T00:21:10;0.50;99.90
41481;DHT22;27217;51.220;5.308;2022-12-10T00:23:37;0.50;99.90
41481;DHT22;27217;51.220;5.308;2022-12-10T00:26:08;0.30;99.90
41481;DHT22;27217;51.220;5.308;2022-12-10T00:28:34;0.40;99.90
41481;DHT22;27217;51.220;5.308;2022-12-10T00:31:14;0.80;99.90
41481;DHT22;27217;51.220;5.308;2022-12-10T00:33:41;0.90;99.90
41481;DHT22;27217;51.220;5.308;2022-12-10T00:36:13;0.90;99.90
41481;DHT22;27217;51.220;5.308;2022-12-10T00:38:40;1.00;99.90
41481;DHT22;27217;51.220;5.308;2022-12-10T00:41:06;1.20;99.90
41481;DHT22;27217;51.220;5.308;2022-12-10T00:43:33;1.00;99.90
41481;DHT22;27217;51.220;5.308;2022-12-10T00:46:00;1.00;99.90
41481;DHT22;27217;51.220;5.308;2022-12-10T00:48:26;0.30;99.90
41481;DHT22;27217;51.220;5.308;2022-12-10T00:53:27;0.60;99.90
41481;DHT22;27217;51.220;5.308;2022-12-10T00:55:53;0.40;99.90
41481;DHT22;27217;51.220;5.308;2022-12-10T00:58:19;0.30;99.90
41481;DHT22;27217;51.220;5.308;2022-12-10T01:00:45;0.70;99.90
41481;DHT22;27217;51.220;5.308;2022-12-10T01:03:10;0.70;99.90
41481;DHT22;27217;51.220;5.308;2022-12-10T01:05:36;0.70;99.90
41481;DHT22;27217;51.220;5.308;2022-12-10T01:08:02;0.70;99.90
41481;DHT22;27217;51.220;5.308;2022-12-10T01:10:29;0.50;99.90
41481;DHT22;27217;51.220;5.308;2022-12-10T01:12:55;0.90;99.90
41481;DHT22;27217;51.220;5.308;2022-12-10T01:15:20;1.20;99.90
41481;DHT22;27217;51.220;5.308;2022-12-10T01:17:47;0.90;99.90
41481;DHT22;27217;51.220;5.308;2022-12-10T01:20:13;0.90;99.90
41481;DHT22;27217;51.220;5.308;2022-12-10T01:22:39;0.40;99.90
41481;DHT22;27217;51.220;5.308;2022-12-10T01:25:05;0.90;99.90
41481;DHT22;27217;51.220;5.308;2022-12-10T01:27:31;1.10;99.90
41481;DHT22;27217;51.220;5.308;2022-12-10T01:29:57;1.00;99.90
41481;DHT22;27217;51.220;5.308;2022-12-10T01:32:23;0.70;99.90
41481;DHT22;27217;51.220;5.308;2022-12-10T01:34:48;0.40;99.90
41481;DHT22;27217;51.220;5.308;2022-12-10T01:37:14;0.40;99.90
41481;DHT22;27217;51.220;5.308;2022-12-10T01:39:40;0.40;99.90
41481;DHT22;27217;51.220;5.308;2022-12-10T01:42:06;0.30;99.90
41481;DHT22;27217;51.220;5.308;2022-12-10T01:46:59;0.40;99.90
41481;DHT22;27217;51.220;5.308;2022-12-10T01:49:36;0.30;99.90
41481;DHT22;27217;51.220;5.308;2022-12-10T01:52:04;0.00;99.90
41481;DHT22;27217;51.220;5.308;2022-12-10T01:54:44;0.20;99.90
41481;DHT22;27217;51.220;5.308;2022-12-10T01:57:19;0.60;99.90
41481;DHT22;27217;51.220;5.308;2022-12-10T01:59:48;0.90;99.90
41481;DHT22;27217;51.220;5.308;2022-12-10T02:02:45;1.20;99.90
41481;DHT22;27217;51.220;5.308;2022-12-10T02:13:21;0.50;99.90
41481;DHT22;27217;51.220;5.308;2022-12-10T02:18:38;0.90;99.90
41481;DHT22;27217;51.220;5.308;2022-12-10T02:21:13;0.90;99.90
41481;DHT22;27217;51.220;5.308;2022-12-10T02:23:46;0.70;99.90
41481;DHT22;27217;51.220;5.308;2022-12-10T02:29:11;0.70;99.90
41481;DHT22;27217;51.220;5.308;2022-12-10T02:31:40;0.40;99.90
41481;DHT22;27217;51.220;5.308;2022-12-10T02:34:08;0.70;99.90
41481;DHT22;27217;51.220;5.308;2022-12-10T02:36:37;0.10;99.90
41481;DHT22;27217;51.220;5.308;2022-12-10T02:39:09;0.10;99.90
41481;DHT22;27217;51.220;5.308;2022-12-10T02:41:40;0.20;99.90
41481;DHT22;27217;51.220;5.308;2022-12-10T02:44:07;0.20;99.90
41481;DHT22;27217;51.220;5.308;2022-12-10T02:46:36;0.10;99.90
41481;DHT22;27217;51.220;5.308;2022-12-10T02:49:06;0.10;99.90
41481;DHT22;27217;51.220;5.308;2022-12-10T02:51:31;0.50;99.90
41481;DHT22;27217;51.220;5.308;2022-12-10T02:54:05;0.60;99.90
41481;DHT22;27217;51.220;5.308;2022-12-10T02:56:47;0.20;99.90
41481;DHT22;27217;51.220;5.308;2022-12-10T02:59:28;0.10;99.90
41481;DHT22;27217;51.220;5.308;2022-12-10T03:02:02;0.00;99.90
41481;DHT22;27217;51.220;5.308;2022-12-10T03:07:27;0.00;99.90
41481;DHT22;27217;51.220;5.308;2022-12-10T03:10:24;0.20;99.90
41481;DHT22;27217;51.220;5.308;2022-12-10T03:12:58;0.20;99.90
41481;DHT22;27217;51.220;5.308;2022-12-10T03:15:26;0.30;99.90
41481;DHT22;27217;51.220;5.308;2022-12-10T03:17:54;0.00;99.90
41481;DHT22;27217;51.220;5.308;2022-12-10T03:20:25;0.20;99.90
41481;DHT22;27217;51.220;5.308;2022-12-10T03:22:52;0.10;99.90
41481;DHT22;27217;51.220;5.308;2022-12-10T03:25:23;0.50;99.90
41481;DHT22;27217;51.220;5.308;2022-12-10T03:27:53;0.20;99.90
41481;DHT22;27217;51.220;5.308;2022-12-10T03:30:20;0.20;99.90
41481;DHT22;27217;51.220;5.308;2022-12-10T03:32:46;-0.20;99.90
41481;DHT22;27217;51.220;5.308;2022-12-10T03:35:13;0.20;99.90
41481;DHT22;27217;51.220;5.308;2022-12-10T03:37:40;-0.10;99.90
41481;DHT22;27217;51.220;5.308;2022-12-10T03:40:08;0.10;99.90
41481;DHT22;27217;51.220;5.308;2022-12-10T03:42:36;0.40;99.90
41481;DHT22;27217;51.220;5.308;2022-12-10T03:45:03;0.30;99.90
41481;DHT22;27217;51.220;5.308;2022-12-10T03:47:29;0.30;99.90
41481;DHT22;27217;51.220;5.308;2022-12-10T03:49:55;0.30;99.90
41481;DHT22;27217;51.220;5.308;2022-12-10T03:52:21;0.50;99.90
41481;DHT22;27217;51.220;5.308;2022-12-10T03:54:47;0.20;99.90
41481;DHT22;27217;51.220;5.308;2022-12-10T03:57:13;0.00;99.90
41481;DHT22;27217;51.220;5.308;2022-12-10T03:59:38;-0.10;99.90
41481;DHT22;27217;51.220;5.308;2022-12-10T04:02:04;0.10;99.90
41481;DHT22;27217;51.220;5.308;2022-12-10T04:04:30;0.60;99.90
41481;DHT22;27217;51.220;5.308;2022-12-10T04:06:56;0.70;99.90
41481;DHT22;27217;51.220;5.308;2022-12-10T04:09:22;0.30;99.90
41481;DHT22;27217;51.220;5.308;2022-12-10T04:11:47;0.60;99.90
41481;DHT22;27217;51.220;5.308;2022-12-10T04:14:14;0.60;99.90
41481;DHT22;27217;51.220;5.308;2022-12-10T04:16:59;0.50;99.90
41481;DHT22;27217;51.220;5.308;2022-12-10T04:19:26;0.30;99.90
41481;DHT22;27217;51.220;5.308;2022-12-10T04:21:52;0.30;99.90
41481;DHT22;27217;51.220;5.308;2022-12-10T04:24:37;0.30;99.90
41481;DHT22;27217;51.220;5.308;2022-12-10T04:27:26;0.70;99.90
41481;DHT22;27217;51.220;5.308;2022-12-10T04:29:54;0.60;99.90
41481;DHT22;27217;51.220;5.308;2022-12-10T04:32:20;0.60;99.90
41481;DHT22;27217;51.220;5.308;2022-12-10T04:34:47;0.30;99.90
41481;DHT22;27217;51.220;5.308;2022-12-10T04:37:13;0.30;99.90
41481;DHT22;27217;51.220;5.308;2022-12-10T04:39:40;0.50;99.90
41481;DHT22;27217;51.220;5.308;2022-12-10T04:42:07;0.20;99.90
41481;DHT22;27217;51.220;5.308;2022-12-10T04:44:33;0.40;99.90
41481;DHT22;27217;51.220;5.308;2022-12-10T04:46:59;0.10;99.90
41481;DHT22;27217;51.220;5.308;2022-12-10T04:49:26;0.30;99.90
41481;DHT22;27217;51.220;5.308;2022-12-10T04:51:52;0.10;99.90
41481;DHT22;27217;51.220;5.308;2022-12-10T04:54:19;0.40;99.90
41481;DHT22;27217;51.220;5.308;2022-12-10T04:56:45;0.20;99.90
41481;DHT22;27217;51.220;5.308;2022-12-10T04:59:11;0.20;99.90
41481;DHT22;27217;51.220;5.308;2022-12-10T05:01:38;0.50;99.90
41481;DHT22;27217;51.220;5.308;2022-12-10T05:04:06;0.80;99.90
41481;DHT22;27217;51.220;5.308;2022-12-10T05:06:33;0.70;99.90
41481;DHT22;27217;51.220;5.308;2022-12-10T05:09:00;0.90;99.90
41481;DHT22;27217;51.220;5.308;2022-12-10T05:11:28;0.80;99.90
41481;DHT22;27217;51.220;5.308;2022-12-10T05:13:55;0.80;99.90
41481;DHT22;27217;51.220;5.308;2022-12-10T05:16:23;0.80;99.90
41481;DHT22;27217;51.220;5.308;2022-12-10T05:18:50;0.80;99.90
41481;DHT22;27217;51.220;5.308;2022-12-10T05:21:17;0.50;99.90
41481;DHT22;27217;51.220;5.308;2022-12-10T05:23:48;0.50;99.90
41481;DHT22;27217;51.220;5.308;2022-12-10T05:26:20;1.10;99.90
41481;DHT22;27217;51.220;5.308;2022-12-10T05:28:55;0.80;99.90
41481;DHT22;27217;51.220;5.308;2022-12-10T05:31:24;0.60;99.90
41481;DHT22;27217;51.220;5.308;2022-12-10T05:33:51;0.40;99.90
41481;DHT22;27217;51.220;5.308;2022-12-10T05:36:19;0.20;99.90
41481;DHT22;27217;51.220;5.308;2022-12-10T05:38:46;0.30;99.90
41481;DHT22;27217;51.220;5.308;2022-12-10T05:41:15;0.50;99.90
41481;DHT22;27217;51.220;5.308;2022-12-10T05:43:42;0.50;99.90
41481;DHT22;27217;51.220;5.308;2022-12-10T05:46:15;0.30;99.90
41481;DHT22;27217;51.220;5.308;2022-12-10T05:48:41;0.20;99.90
41481;DHT22;27217;51.220;5.308;2022-12-10T05:51:09;0.00;99.90
41481;DHT22;27217;51.220;5.308;2022-12-10T05:53:36;0.30;99.90
41481;DHT22;27217;51.220;5.308;2022-12-10T05:56:04;0.20;99.90
41481;DHT22;27217;51.220;5.308;2022-12-10T05:58:30;-0.20;99.90
41481;DHT22;27217;51.220;5.308;2022-12-10T06:00:57;-0.30;99.90
41481;DHT22;27217;51.220;5.308;2022-12-10T06:03:24;-0.10;99.90
41481;DHT22;27217;51.220;5.308;2022-12-10T06:05:50;-0.20;99.90
41481;DHT22;27217;51.220;5.308;2022-12-10T06:08:17;-0.20;99.90
41481;DHT22;27217;51.220;5.308;2022-12-10T06:10:42;-0.20;99.90
41481;DHT22;27217;51.220;5.308;2022-12-10T06:13:09;-0.30;99.90
41481;DHT22;27217;51.220;5.308;2022-12-10T06:15:37;-0.10;99.90
41481;DHT22;27217;51.220;5.308;2022-12-10T06:18:03;-0.30;99.90
41481;DHT22;27217;51.220;5.308;2022-12-10T06:20:30;-0.30;99.90
41481;DHT22;27217;51.220;5.308;2022-12-10T06:22:56;-0.40;99.90
41481;DHT22;27217;51.220;5.308;2022-12-10T06:25:21;-0.20;99.90
41481;DHT22;27217;51.220;5.308;2022-12-10T06:27:47;-0.10;99.90
41481;DHT22;27217;51.220;5.308;2022-12-10T06:30:13;-0.30;99.90
41481;DHT22;27217;51.220;5.308;2022-12-10T06:32:39;0.00;99.90
41481;DHT22;27217;51.220;5.308;2022-12-10T06:35:05;-0.10;99.90
41481;DHT22;27217;51.220;5.308;2022-12-10T06:37:32;0.10;99.90
41481;DHT22;27217;51.220;5.308;2022-12-10T06:39:59;0.60;99.90
41481;DHT22;27217;51.220;5.308;2022-12-10T06:42:25;0.30;99.90
41481;DHT22;27217;51.220;5.308;2022-12-10T06:44:51;0.40;99.90
41481;DHT22;27217;51.220;5.308;2022-12-10T06:47:17;0.60;99.90
41481;DHT22;27217;51.220;5.308;2022-12-10T06:49:43;0.70;99.90
41481;DHT22;27217;51.220;5.308;2022-12-10T06:52:08;0.40;99.90
41481;DHT22;27217;51.220;5.308;2022-12-10T06:54:34;0.10;99.90
41481;DHT22;27217;51.220;5.308;2022-12-10T06:57:00;-0.10;99.90
41481;DHT22;27217;51.220;5.308;2022-12-10T06:59:26;0.00;99.90
41481;DHT22;27217;51.220;5.308;2022-12-10T07:01:53;0.20;99.90
41481;DHT22;27217;51.220;5.308;2022-12-10T07:04:19;0.00;99.90
41481;DHT22;27217;51.220;5.308;2022-12-10T07:06:44;-0.10;99.90
41481;DHT22;27217;51.220;5.308;2022-12-10T07:09:10;0.20;99.90
41481;DHT22;27217;51.220;5.308;2022-12-10T07:11:37;0.00;99.90
41481;DHT22;27217;51.220;5.308;2022-12-10T07:14:03;0.00;99.90
41481;DHT22;27217;51.220;5.308;2022-12-10T07:16:31;-0.20;99.90
41481;DHT22;27217;51.220;5.308;2022-12-10T07:19:00;-0.30;99.90
41481;DHT22;27217;51.220;5.308;2022-12-10T07:21:32;-0.10;99.90
41481;DHT22;27217;51.220;5.308;2022-12-10T07:24:01;0.00;99.90
41481;DHT22;27217;51.220;5.308;2022-12-10T07:26:29;0.30;99.90
41481;DHT22;27217;51.220;5.308;2022-12-10T07:28:56;0.20;99.90
41481;DHT22;27217;51.220;5.308;2022-12-10T07:31:22;-0.30;99.90
41481;DHT22;27217;51.220;5.308;2022-12-10T07:33:48;-0.50;99.90
41481;DHT22;27217;51.220;5.308;2022-12-10T07:36:15;-0.30;99.90
41481;DHT22;27217;51.220;5.308;2022-12-10T07:38:41;-0.20;99.90
41481;DHT22;27217;51.220;5.308;2022-12-10T07:41:09;-0.10;99.90
41481;DHT22;27217;51.220;5.308;2022-12-10T07:43:38;-0.10;99.90
41481;DHT22;27217;51.220;5.308;2022-12-10T07:46:10;0.10;99.90
41481;DHT22;27217;51.220;5.308;2022-12-10T07:48:37;-0.10;99.90
41481;DHT22;27217;51.220;5.308;2022-12-10T07:51:04;-0.10;99.90
41481;DHT22;27217;51.220;5.308;2022-12-10T07:53:31;0.00;99.90
41481;DHT22;27217;51.220;5.308;2022-12-10T07:55:57;0.40;99.90
41481;DHT22;27217;51.220;5.308;2022-12-10T07:58:23;-0.10;99.90
41481;DHT22;27217;51.220;5.308;2022-12-10T08:00:49;0.10;99.90
41481;DHT22;27217;51.220;5.308;2022-12-10T08:03:15;-0.20;99.90
41481;DHT22;27217;51.220;5.308;2022-12-10T08:05:41;-0.20;99.90
41481;DHT22;27217;51.220;5.308;2022-12-10T08:08:07;0.10;99.90
41481;DHT22;27217;51.220;5.308;2022-12-10T08:10:38;0.20;99.90
41481;DHT22;27217;51.220;5.308;2022-12-10T08:13:05;0.20;99.90
41481;DHT22;27217;51.220;5.308;2022-12-10T08:15:31;-0.10;99.90
41481;DHT22;27217;51.220;5.308;2022-12-10T08:17:58;-0.40;99.90
41481;DHT22;27217;51.220;5.308;2022-12-10T08:20:24;-0.40;99.90
41481;DHT22;27217;51.220;5.308;2022-12-10T08:22:51;-0.20;99.90
41481;DHT22;27217;51.220;5.308;2022-12-10T08:25:17;-0.20;99.90
41481;DHT22;27217;51.220;5.308;2022-12-10T08:27:43;-0.30;99.90
41481;DHT22;27217;51.220;5.308;2022-12-10T08:30:09;-0.20;99.90
41481;DHT22;27217;51.220;5.308;2022-12-10T08:32:35;-0.50;99.90
41481;DHT22;27217;51.220;5.308;2022-12-10T08:35:01;-0.70;99.90
41481;DHT22;27217;51.220;5.308;2022-12-10T08:37:27;-0.40;99.90
41481;DHT22;27217;51.220;5.308;2022-12-10T08:39:53;0.00;99.90
41481;DHT22;27217;51.220;5.308;2022-12-10T08:42:19;0.00;99.90
41481;DHT22;27217;51.220;5.308;2022-12-10T08:44:45;0.00;99.90
41481;DHT22;27217;51.220;5.308;2022-12-10T08:47:10;0.00;99.90
41481;DHT22;27217;51.220;5.308;2022-12-10T08:49:36;0.10;99.90
41481;DHT22;27217;51.220;5.308;2022-12-10T08:52:02;-0.20;99.90
41481;DHT22;27217;51.220;5.308;2022-12-10T08:54:28;0.10;99.90
41481;DHT22;27217;51.220;5.308;2022-12-10T08:56:55;-0.10;99.90
41481;DHT22;27217;51.220;5.308;2022-12-10T08:59:21;0.30;99.90
41481;DHT22;27217;51.220;5.308;2022-12-10T09:01:47;0.20;99.90
41481;DHT22;27217;51.220;5.308;2022-12-10T09:04:12;0.20;99.90
41481;DHT22;27217;51.220;5.308;2022-12-10T09:06:41;0.30;99.90
41481;DHT22;27217;51.220;5.308;2022-12-10T09:09:06;0.60;99.90
41481;DHT22;27217;51.220;5.308;2022-12-10T09:11:33;0.60;99.90
41481;DHT22;27217;51.220;5.308;2022-12-10T09:14:00;0.80;99.90
41481;DHT22;27217;51.220;5.308;2022-12-10T09:16:32;0.50;99.90
41481;DHT22;27217;51.220;5.308;2022-12-10T09:18:59;0.10;99.90
41481;DHT22;27217;51.220;5.308;2022-12-10T09:21:26;0.00;99.90
41481;DHT22;27217;51.220;5.308;2022-12-10T09:23:52;0.00;99.90
41481;DHT22;27217;51.220;5.308;2022-12-10T09:26:19;0.20;99.90
41481;DHT22;27217;51.220;5.308;2022-12-10T09:28:46;0.30;99.90
41481;DHT22;27217;51.220;5.308;2022-12-10T09:31:13;0.20;99.90
41481;DHT22;27217;51.220;5.308;2022-12-10T09:33:40;0.70;99.90
41481;DHT22;27217;51.220;5.308;2022-12-10T09:36:08;0.50;99.90
41481;DHT22;27217;51.220;5.308;2022-12-10T09:38:36;0.30;99.90
41481;DHT22;27217;51.220;5.308;2022-12-10T09:41:32;0.50;99.90
41481;DHT22;27217;51.220;5.308;2022-12-10T09:44:29;0.70;99.90
41481;DHT22;27217;51.220;5.308;2022-12-10T09:46:59;0.80;99.90
41481;DHT22;27217;51.220;5.308;2022-12-10T09:52:03;0.00;99.90
41481;DHT22;27217;51.220;5.308;2022-12-10T09:54:43;0.00;99.90
41481;DHT22;27217;51.220;5.308;2022-12-10T09:57:19;0.00;99.90
41481;DHT22;27217;51.220;5.308;2022-12-10T09:59:49;0.00;99.90
41481;DHT22;27217;51.220;5.308;2022-12-10T10:02:25;0.10;99.90
41481;DHT22;27217;51.220;5.308;2022-12-10T10:05:01;0.10;99.90
41481;DHT22;27217;51.220;5.308;2022-12-10T10:07:35;0.40;99.90
41481;DHT22;27217;51.220;5.308;2022-12-10T10:10:27;0.30;99.90
41481;DHT22;27217;51.220;5.308;2022-12-10T10:15:53;0.50;99.90
41481;DHT22;27217;51.220;5.308;2022-12-10T10:18:45;0.70;99.90
41481;DHT22;27217;51.220;5.308;2022-12-10T10:23:57;0.70;99.90
41481;DHT22;27217;51.220;5.308;2022-12-10T10:26:26;0.70;99.90
41481;DHT22;27217;51.220;5.308;2022-12-10T10:28:57;1.00;99.90
41481;DHT22;27217;51.220;5.308;2022-12-10T10:31:27;1.20;99.90
41481;DHT22;27217;51.220;5.308;2022-12-10T10:33:56;0.90;99.90
41481;DHT22;27217;51.220;5.308;2022-12-10T10:36:32;0.60;99.90
41481;DHT22;27217;51.220;5.308;2022-12-10T10:41:41;0.60;99.90
41481;DHT22;27217;51.220;5.308;2022-12-10T10:44:16;0.30;99.90
41481;DHT22;27217;51.220;5.308;2022-12-10T10:46:49;-0.20;99.90
41481;DHT22;27217;51.220;5.308;2022-12-10T10:51:45;0.40;99.90
41481;DHT22;27217;51.220;5.308;2022-12-10T10:57:08;0.50;99.90
41481;DHT22;27217;51.220;5.308;2022-12-10T10:59:36;0.50;99.90
41481;DHT22;27217;51.220;5.308;2022-12-10T11:04:52;0.60;99.90
41481;DHT22;27217;51.220;5.308;2022-12-10T11:09:55;0.40;99.90
41481;DHT22;27217;51.220;5.308;2022-12-10T11:12:41;0.90;99.90
41481;DHT22;27217;51.220;5.308;2022-12-10T11:17:59;1.10;99.90
41481;DHT22;27217;51.220;5.308;2022-12-10T11:20:31;0.70;99.90
41481;DHT22;27217;51.220;5.308;2022-12-10T11:23:01;0.40;99.90
41481;DHT22;27217;51.220;5.308;2022-12-10T11:30:45;0.60;99.90
41481;DHT22;27217;51.220;5.308;2022-12-10T11:33:35;0.80;99.90
41481;DHT22;27217;51.220;5.308;2022-12-10T11:38:54;0.40;99.90
41481;DHT22;27217;51.220;5.308;2022-12-10T11:41:33;0.70;99.90
41481;DHT22;27217;51.220;5.308;2022-12-10T11:44:33;1.00;99.90
41481;DHT22;27217;51.220;5.308;2022-12-10T11:50:28;0.90;99.90
41481;DHT22;27217;51.220;5.308;2022-12-10T11:56:26;0.60;99.90
41481;DHT22;27217;51.220;5.308;2022-12-10T11:59:15;0.20;99.90
41481;DHT22;27217;51.220;5.308;2022-12-10T12:07:32;0.80;99.90
41481;DHT22;27217;51.220;5.308;2022-12-10T12:10:29;1.10;99.90
41481;DHT22;27217;51.220;5.308;2022-12-10T12:13:24;0.50;99.90
41481;DHT22;27217;51.220;5.308;2022-12-10T12:16:07;0.80;99.90
41481;DHT22;27217;51.220;5.308;2022-12-10T12:18:55;1.00;99.90
41481;DHT22;27217;51.220;5.308;2022-12-10T12:21:23;0.90;99.90
41481;DHT22;27217;51.220;5.308;2022-12-10T12:24:02;0.80;99.90
41481;DHT22;27217;51.220;5.308;2022-12-10T12:26:43;1.00;99.90
41481;DHT22;27217;51.220;5.308;2022-12-10T12:29:23;0.60;99.90
41481;DHT22;27217;51.220;5.308;2022-12-10T12:32:20;0.50;99.90
41481;DHT22;27217;51.220;5.308;2022-12-10T12:34:56;0.70;99.90
41481;DHT22;27217;51.220;5.308;2022-12-10T12:37:29;0.80;99.90
41481;DHT22;27217;51.220;5.308;2022-12-10T12:40:29;1.20;99.90
41481;DHT22;27217;51.220;5.308;2022-12-10T12:43:02;1.10;99.90
41481;DHT22;27217;51.220;5.308;2022-12-10T12:51:21;0.90;99.90
41481;DHT22;27217;51.220;5.308;2022-12-10T12:53:49;0.60;99.90
41481;DHT22;27217;51.220;5.308;2022-12-10T13:01:51;0.80;99.90
41481;DHT22;27217;51.220;5.308;2022-12-10T13:04:18;1.00;99.90
41481;DHT22;27217;51.220;5.308;2022-12-10T13:10:18;0.90;99.90
41481;DHT22;27217;51.220;5.308;2022-12-10T13:12:50;1.20;99.90
41481;DHT22;27217;51.220;5.308;2022-12-10T13:15:22;0.90;99.90
41481;DHT22;27217;51.220;5.308;2022-12-10T13:18:22;0.80;99.90
41481;DHT22;27217;51.220;5.308;2022-12-10T13:20:51;0.90;99.90
41481;DHT22;27217;51.220;5.308;2022-12-10T13:23:51;0.90;99.90
41481;DHT22;27217;51.220;5.308;2022-12-10T13:26:26;1.00;99.90
41481;DHT22;27217;51.220;5.308;2022-12-10T13:28:54;1.20;99.90
41481;DHT22;27217;51.220;5.308;2022-12-10T13:31:31;1.20;99.90
41481;DHT22;27217;51.220;5.308;2022-12-10T13:39:33;1.30;99.90
41481;DHT22;27217;51.220;5.308;2022-12-10T13:42:26;0.90;99.90
41481;DHT22;27217;51.220;5.308;2022-12-10T13:45:24;0.50;99.90
41481;DHT22;27217;51.220;5.308;2022-12-10T13:48:15;0.80;99.90
41481;DHT22;27217;51.220;5.308;2022-12-10T13:51:05;0.80;99.90
41481;DHT22;27217;51.220;5.308;2022-12-10T13:56:30;0.60;99.90
41481;DHT22;27217;51.220;5.308;2022-12-10T14:00:07;0.60;99.90
41481;DHT22;27217;51.220;5.308;2022-12-10T14:07:31;1.00;99.90
41481;DHT22;27217;51.220;5.308;2022-12-10T14:09:58;1.00;99.90
41481;DHT22;27217;51.220;5.308;2022-12-10T14:12:26;1.10;99.90
41481;DHT22;27217;51.220;5.308;2022-12-10T14:15:05;1.30;99.90
41481;DHT22;27217;51.220;5.308;2022-12-10T14:17:37;0.70;99.90
41481;DHT22;27217;51.220;5.308;2022-12-10T14:20:07;0.50;99.90
41481;DHT22;27217;51.220;5.308;2022-12-10T14:22:43;0.80;99.90
41481;DHT22;27217;51.220;5.308;2022-12-10T14:25:21;1.00;99.90
41481;DHT22;27217;51.220;5.308;2022-12-10T14:27:52;0.90;99.90
41481;DHT22;27217;51.220;5.308;2022-12-10T14:30:23;1.00;99.90
41481;DHT22;27217;51.220;5.308;2022-12-10T14:32:51;0.90;99.90
41481;DHT22;27217;51.220;5.308;2022-12-10T14:35:22;1.00;99.90
41481;DHT22;27217;51.220;5.308;2022-12-10T14:37:49;1.10;99.90
41481;DHT22;27217;51.220;5.308;2022-12-10T14:40:39;1.20;99.90
41481;DHT22;27217;51.220;5.308;2022-12-10T14:43:12;0.80;99.90
41481;DHT22;27217;51.220;5.308;2022-12-10T14:46:05;0.90;99.90
41481;DHT22;27217;51.220;5.308;2022-12-10T14:48:30;1.10;99.90
41481;DHT22;27217;51.220;5.308;2022-12-10T14:51:03;1.10;99.90
41481;DHT22;27217;51.220;5.308;2022-12-10T14:53:31;1.10;99.90
41481;DHT22;27217;51.220;5.308;2022-12-10T14:56:01;0.80;99.90
41481;DHT22;27217;51.220;5.308;2022-12-10T14:58:39;0.60;99.90
41481;DHT22;27217;51.220;5.308;2022-12-10T15:01:15;0.40;99.90
41481;DHT22;27217;51.220;5.308;2022-12-10T15:03:46;0.40;99.90
41481;DHT22;27217;51.220;5.308;2022-12-10T15:06:16;0.60;99.90
41481;DHT22;27217;51.220;5.308;2022-12-10T15:08:43;0.50;99.90
41481;DHT22;27217;51.220;5.308;2022-12-10T15:11:16;0.60;99.90
41481;DHT22;27217;51.220;5.308;2022-12-10T15:13:46;0.70;99.90
41481;DHT22;27217;51.220;5.308;2022-12-10T15:16:49;1.00;99.90
41481;DHT22;27217;51.220;5.308;2022-12-10T15:19:19;1.00;99.90
41481;DHT22;27217;51.220;5.308;2022-12-10T15:21:46;1.00;99.90
41481;DHT22;27217;51.220;5.308;2022-12-10T15:24:20;0.90;99.90
41481;DHT22;27217;51.220;5.308;2022-12-10T15:26:50;0.90;99.90
41481;DHT22;27217;51.220;5.308;2022-12-10T15:31:53;0.80;99.90
41481;DHT22;27217;51.220;5.308;2022-12-10T15:34:20;0.70;99.90
41481;DHT22;27217;51.220;5.308;2022-12-10T15:36:53;0.60;99.90
41481;DHT22;27217;51.220;5.308;2022-12-10T15:39:29;1.00;99.90
41481;DHT22;27217;51.220;5.308;2022-12-10T15:41:56;1.10;99.90
41481;DHT22;27217;51.220;5.308;2022-12-10T15:47:08;1.40;99.90
41481;DHT22;27217;51.220;5.308;2022-12-10T15:49:35;1.50;99.90
41481;DHT22;27217;51.220;5.308;2022-12-10T15:52:02;1.40;99.90
41481;DHT22;27217;51.220;5.308;2022-12-10T15:54:39;1.20;99.90
41481;DHT22;27217;51.220;5.308;2022-12-10T15:57:15;1.00;99.90
41481;DHT22;27217;51.220;5.308;2022-12-10T15:59:42;1.00;99.90
41481;DHT22;27217;51.220;5.308;2022-12-10T16:02:33;0.90;99.90
41481;DHT22;27217;51.220;5.308;2022-12-10T16:05:00;0.70;99.90
41481;DHT22;27217;51.220;5.308;2022-12-10T16:07:27;0.80;99.90
41481;DHT22;27217;51.220;5.308;2022-12-10T16:09:53;0.70;99.90
41481;DHT22;27217;51.220;5.308;2022-12-10T16:12:19;0.60;99.90
41481;DHT22;27217;51.220;5.308;2022-12-10T16:14:54;0.70;99.90
41481;DHT22;27217;51.220;5.308;2022-12-10T16:17:25;1.10;99.90
41481;DHT22;27217;51.220;5.308;2022-12-10T16:19:52;1.10;99.90
41481;DHT22;27217;51.220;5.308;2022-12-10T16:22:18;1.20;99.90
41481;DHT22;27217;51.220;5.308;2022-12-10T16:24:44;1.20;99.90
41481;DHT22;27217;51.220;5.308;2022-12-10T16:27:14;1.30;99.90
41481;DHT22;27217;51.220;5.308;2022-12-10T16:29:43;1.10;99.90
41481;DHT22;27217;51.220;5.308;2022-12-10T16:32:12;1.40;99.90
41481;DHT22;27217;51.220;5.308;2022-12-10T16:34:39;1.30;99.90
41481;DHT22;27217;51.220;5.308;2022-12-10T16:37:05;0.90;99.90
41481;DHT22;27217;51.220;5.308;2022-12-10T16:39:31;1.20;99.90
41481;DHT22;27217;51.220;5.308;2022-12-10T16:41:57;1.20;99.90
41481;DHT22;27217;51.220;5.308;2022-12-10T16:44:23;1.50;99.90
41481;DHT22;27217;51.220;5.308;2022-12-10T16:46:49;1.40;99.90
41481;DHT22;27217;51.220;5.308;2022-12-10T16:49:15;1.40;99.90
41481;DHT22;27217;51.220;5.308;2022-12-10T16:51:41;1.30;99.90
41481;DHT22;27217;51.220;5.308;2022-12-10T16:54:12;1.40;99.90
41481;DHT22;27217;51.220;5.308;2022-12-10T16:56:39;1.40;99.90
41481;DHT22;27217;51.220;5.308;2022-12-10T16:59:07;1.40;99.90
41481;DHT22;27217;51.220;5.308;2022-12-10T17:01:33;1.20;99.90
41481;DHT22;27217;51.220;5.308;2022-12-10T17:04:02;1.20;99.90
41481;DHT22;27217;51.220;5.308;2022-12-10T17:06:28;1.20;99.90
41481;DHT22;27217;51.220;5.308;2022-12-10T17:08:54;1.00;99.90
41481;DHT22;27217;51.220;5.308;2022-12-10T17:11:25;1.10;99.90
41481;DHT22;27217;51.220;5.308;2022-12-10T17:14:21;0.80;99.90
41481;DHT22;27217;51.220;5.308;2022-12-10T17:16:47;0.50;99.90
41481;DHT22;27217;51.220;5.308;2022-12-10T17:19:14;0.70;99.90
41481;DHT22;27217;51.220;5.308;2022-12-10T17:21:40;0.70;99.90
41481;DHT22;27217;51.220;5.308;2022-12-10T17:24:06;0.90;99.90
41481;DHT22;27217;51.220;5.308;2022-12-10T17:26:34;0.60;99.90
41481;DHT22;27217;51.220;5.308;2022-12-10T17:29:14;1.10;99.90
41481;DHT22;27217;51.220;5.308;2022-12-10T17:31:42;1.10;99.90
41481;DHT22;27217;51.220;5.308;2022-12-10T17:34:10;1.00;99.90
41481;DHT22;27217;51.220;5.308;2022-12-10T17:36:37;0.70;99.90
41481;DHT22;27217;51.220;5.308;2022-12-10T17:39:03;0.80;99.90
41481;DHT22;27217;51.220;5.308;2022-12-10T17:41:29;0.80;99.90
41481;DHT22;27217;51.220;5.308;2022-12-10T17:43:55;1.00;99.90
41481;DHT22;27217;51.220;5.308;2022-12-10T17:46:24;0.90;99.90